Pitt Greenville Airport
KPGV : now visible

Airfield :











YOU CAN JOIN US ON...

 
LOGIN :

Register | Disclaimer

   EN    FR    IT 

 









Legend :    VFR   Marginal VFR   IFR   Intensive IFR   Very Intensive IFR
Visi :
Ceiling :
>= 8 km
>= 3000ft
5 to 8 km
1000 to 3000 ft
1500m to 5 km
500 to 1000 ft
800 to 1500m
200 to 500 ft
< 800m
< 200 ft
Symbols :   Thunderstorms  Fog  Heavy snow  Heavy precipitations  Wind > 20 kt






- Airport Elevation : 26 ft


KPGV - Pitt Greenville

CURRENT METAR :
  • 050215Z AUTO 01006KT 10SM BKN011 BKN047 21/20 A3008 RMK AO2

EXPIRED METARs :
  • 050155Z AUTO 01004KT 10SM SCT045 21/20 A3007 RMK AO2 P0002
  • 050135Z AUTO 36005KT 10SM SCT045 21/20 A3006 RMK AO2 P0001
  • 050115Z AUTO 01005KT 10SM SCT008 SCT039 BKN045 21/20 A3005 RMK AO2 P0001
  • 050055Z AUTO 01005KT 7SM SCT008 SCT039 SCT046 21/20 A3005 RMK AO2 P0002
  • 050035Z AUTO 36006KT 10SM SCT050 21/20 A3004 RMK AO2 P0002
  • 050015Z AUTO 36004KT 10SM SCT027 SCT050 22/20 A3005 RMK AO2 P0001
  • 042355Z AUTO 01006KT 10SM SCT027 SCT050 22/20 A3004 RMK AO2 P0002

TAF KPGV
Valid from the 05 at 00:00 until the 06 at 00:00 UTC


042347Z 0500/0524 01006KT P6SM SCT010 BKN020
FM050600 35004KT 5SM BR BKN015
FM051200 36005KT P6SM SCT025 AMD LTD TO CLD VIS AND WIND
KZDC FIR / North America



MET'MAP, your aeronautical weather chart ! - Copyright ORBIFLY December 2007 - Disclaimer

ORBIFLY MET'MAP TEAM :

Programming & Development : Alexandra Zaïnal
Concept & original design : Baudouin d'Aumeries
Assistance for programming : Marc-Olivier Méhu
Technical & hardware support : Manuel Goepfert

Contact : metmap@orbifly.com




SOURCES & CREDITS :

   NOAA       Earth
Advisory